createdAt,value
2019-02-23T00:00:16.217Z,63.88
2019-02-23T00:02:46.502Z,64.58
2019-02-23T00:05:16.749Z,64.06
2019-02-23T00:07:47.039Z,64.82
2019-02-23T00:10:18.158Z,64.40
2019-02-23T00:12:48.550Z,64.53
2019-02-23T00:15:18.790Z,65.56
2019-02-23T00:17:49.104Z,64.73
2019-02-23T00:20:19.362Z,65.44
2019-02-23T00:22:49.666Z,64.40
2019-02-23T00:25:19.920Z,65.06
2019-02-23T00:27:50.229Z,65.66
2019-02-23T00:30:20.509Z,66.35
2019-02-23T00:32:50.804Z,66.34
2019-02-23T00:35:21.080Z,66.15
2019-02-23T00:37:51.370Z,65.94
2019-02-23T00:40:21.639Z,65.86
2019-02-23T00:42:51.940Z,66.50
2019-02-23T00:45:22.193Z,66.13
2019-02-23T06:31:28.196Z,64.16
2019-02-23T06:34:33.730Z,64.79
2019-02-23T06:37:04.039Z,64.61
2019-02-23T06:53:12.471Z,63.51
2019-02-23T06:55:42.917Z,64.58
2019-02-23T06:58:13.019Z,64.33
2019-02-23T07:00:43.230Z,64.66
2019-02-23T07:03:13.418Z,64.25
2019-02-23T07:05:43.683Z,64.11
2019-02-23T07:08:15.073Z,63.68
2019-02-23T07:10:45.302Z,64.28
2019-02-23T07:13:15.541Z,63.89
2019-02-23T07:15:46.070Z,63.01
2019-02-23T07:18:16.281Z,62.66
2019-02-23T07:20:46.526Z,62.59
2019-02-23T07:23:16.649Z,62.67
2019-02-23T07:25:46.906Z,63.31
2019-02-23T07:28:23.006Z,63.13
2019-02-23T07:30:53.305Z,61.96
2019-02-23T07:33:32.324Z,62.17
2019-02-23T07:35:58.977Z,61.05
2019-02-23T07:38:29.089Z,61.65
2019-02-23T07:40:59.246Z,62.15
2019-02-23T07:43:29.559Z,62.06
2019-02-23T07:45:59.850Z,59.32
2019-02-23T07:48:30.033Z,60.24
2019-02-23T07:51:00.295Z,60.33
2019-02-23T07:53:30.628Z,58.95
2019-02-23T07:56:01.190Z,59.43
2019-02-23T07:58:31.645Z,58.62
2019-02-23T08:01:02.179Z,57.14
2019-02-23T08:03:32.636Z,58.05
2019-02-23T08:06:02.931Z,59.53
2019-02-23T08:08:33.115Z,59.99
2019-02-23T08:11:03.391Z,60.02
2019-02-23T08:13:33.596Z,59.51
2019-02-23T08:16:03.832Z,59.24
2019-02-23T08:18:34.022Z,59.44
2019-02-23T08:21:04.301Z,58.92
2019-02-23T08:23:34.415Z,59.80
2019-02-23T08:26:04.666Z,60.08
2019-02-23T08:28:34.878Z,59.41
2019-02-23T08:31:05.123Z,58.98
2019-02-23T08:33:35.310Z,58.78
2019-02-23T08:36:06.503Z,59.21
2019-02-23T08:38:36.678Z,58.50
2019-02-23T08:41:06.918Z,58.68
2019-02-23T08:43:37.242Z,57.99
2019-02-23T08:46:07.462Z,58.13
2019-02-23T08:48:37.648Z,57.63
2019-02-23T08:51:07.818Z,57.23
2019-02-23T08:53:38.010Z,58.21
2019-02-23T08:56:08.221Z,58.45
2019-02-23T08:58:38.352Z,58.67
2019-02-23T09:01:08.592Z,58.03
2019-02-23T09:03:38.768Z,56.59
2019-02-23T09:06:08.919Z,58.18
2019-02-23T09:08:39.128Z,56.19
2019-02-23T09:11:09.373Z,56.57
2019-02-23T09:13:39.475Z,57.66
2019-02-23T09:16:09.714Z,58.11
2019-02-23T09:18:39.898Z,58.70
2019-02-23T09:21:10.127Z,56.59
2019-02-23T09:23:40.318Z,56.11
2019-02-23T09:26:10.553Z,55.41
2019-02-23T09:28:40.758Z,56.13
2019-02-23T09:31:10.854Z,55.59
2019-02-23T09:33:40.896Z,55.29
2019-02-23T09:36:12.056Z,55.23
2019-02-23T09:38:42.165Z,55.02
2019-02-23T09:41:12.377Z,54.79
2019-02-23T09:43:42.489Z,52.80
2019-02-23T09:46:12.721Z,53.29
2019-02-23T09:48:42.925Z,52.64
2019-02-23T09:51:13.163Z,53.71
2019-02-23T09:53:43.348Z,54.60
2019-02-23T09:56:13.611Z,53.76
2019-02-23T09:58:43.789Z,55.11
2019-02-23T10:01:14.034Z,55.09
2019-02-23T10:03:44.240Z,53.48
2019-02-23T10:06:14.486Z,53.22
2019-02-23T10:08:44.701Z,53.71
2019-02-23T10:11:14.949Z,54.35
2019-02-23T10:13:45.134Z,55.46
2019-02-23T10:16:15.384Z,55.67
2019-02-23T10:18:45.586Z,54.62
2019-02-23T10:21:15.841Z,54.18
2019-02-23T10:23:46.053Z,53.40
2019-02-23T10:26:16.287Z,53.10
2019-02-23T10:28:46.494Z,52.04
2019-02-23T10:31:16.740Z,52.94
2019-02-23T10:33:47.552Z,52.22
2019-02-23T10:36:19.112Z,53.66
2019-02-23T10:38:49.296Z,54.11
2019-02-23T10:41:19.539Z,53.49
2019-02-23T10:43:49.743Z,53.54
2019-02-23T10:46:19.926Z,53.12
2019-02-23T10:48:50.143Z,54.02
2019-02-23T10:51:20.382Z,53.53
2019-02-23T10:53:50.586Z,54.17
2019-02-23T10:56:20.739Z,53.10
2019-02-23T10:58:50.865Z,52.93
2019-02-23T11:01:20.987Z,52.42
2019-02-23T11:03:51.108Z,53.01
2019-02-23T11:06:21.313Z,53.67
2019-02-23T11:08:51.511Z,53.45
2019-02-23T11:11:21.674Z,54.01
2019-02-23T11:13:51.723Z,53.32
2019-02-23T11:16:21.905Z,53.88
2019-02-23T11:18:52.029Z,53.64
2019-02-23T11:21:22.248Z,53.38
2019-02-23T11:23:52.386Z,53.53
2019-02-23T11:26:22.542Z,52.91
2019-02-23T11:28:52.664Z,52.77
2019-02-23T11:31:22.883Z,52.79
2019-02-23T11:33:53.095Z,53.70
2019-02-23T11:36:24.262Z,53.09
2019-02-23T11:38:54.445Z,52.75
2019-02-23T11:41:24.619Z,52.94
2019-02-23T11:43:54.652Z,53.51
2019-02-23T11:46:24.763Z,53.08
2019-02-23T11:48:54.888Z,53.27
2019-02-23T11:51:25.031Z,53.63
2019-02-23T11:53:55.492Z,52.47
2019-02-23T11:56:25.914Z,52.88
2019-02-23T11:58:56.069Z,53.10
2019-02-23T12:01:26.322Z,52.47
2019-02-23T12:03:56.534Z,52.77
2019-02-23T12:06:26.795Z,52.77
2019-02-23T12:08:57.449Z,52.68
2019-02-23T12:11:27.667Z,52.78
2019-02-23T12:13:57.888Z,52.84
2019-02-23T12:16:28.121Z,53.18
2019-02-23T12:18:58.331Z,53.07
2019-02-23T12:21:28.563Z,53.20
2019-02-23T12:24:05.996Z,53.01
2019-02-23T12:26:30.741Z,52.65
2019-02-23T12:29:00.912Z,53.13
2019-02-23T12:31:31.162Z,53.38
2019-02-23T12:34:01.351Z,53.90
2019-02-23T12:36:32.562Z,53.58
2019-02-23T12:39:02.770Z,53.33
2019-02-23T12:41:33.030Z,53.32
2019-02-23T12:44:03.222Z,53.77
2019-02-23T12:46:33.469Z,54.34
2019-02-23T12:49:03.646Z,53.89
2019-02-23T12:51:33.910Z,54.38
2019-02-23T12:54:04.109Z,55.10
2019-02-23T12:56:34.347Z,54.44
2019-02-23T12:59:04.554Z,55.77
2019-02-23T13:01:34.804Z,55.12
2019-02-23T13:04:04.998Z,55.73
2019-02-23T13:06:35.246Z,54.41
2019-02-23T13:09:24.773Z,54.67
2019-02-23T13:12:13.151Z,54.11
2019-02-23T13:14:52.311Z,54.71
2019-02-23T13:17:43.412Z,54.89
2019-02-23T13:20:34.819Z,55.29
2019-02-23T13:23:17.308Z,54.52
2019-02-23T13:25:50.607Z,54.54
2019-02-23T13:28:26.924Z,55.79
2019-02-23T13:31:18.273Z,55.37
2019-02-23T13:34:00.032Z,55.55
2019-02-23T13:36:48.652Z,55.85
2019-02-23T13:39:37.058Z,56.70
2019-02-23T13:42:22.322Z,56.57
2019-02-23T13:45:10.347Z,56.92
2019-02-23T13:47:58.582Z,56.87
2019-02-23T13:50:48.170Z,56.33
2019-02-23T13:53:21.481Z,56.51
2019-02-23T13:56:06.768Z,56.82
2019-02-23T13:58:54.713Z,57.12
2019-02-23T14:01:31.578Z,58.17
2019-02-23T14:04:13.487Z,57.42
2019-02-23T14:06:58.660Z,58.17
2019-02-23T14:09:40.740Z,57.67
2019-02-23T14:12:14.126Z,57.64
2019-02-23T14:14:47.424Z,57.75
2019-02-23T14:17:32.659Z,57.91
2019-02-23T14:20:38.609Z,57.91
2019-02-23T14:23:29.867Z,58.26
2019-02-23T14:26:18.051Z,58.20
2019-02-23T14:29:09.761Z,58.40
2019-02-23T14:31:58.004Z,57.95
2019-02-23T14:34:55.528Z,58.12
2019-02-23T14:37:47.425Z,58.10
2019-02-23T14:40:41.779Z,58.18
2019-02-23T14:43:17.797Z,58.67
2019-02-23T14:46:10.096Z,58.05
2019-02-23T14:48:52.276Z,58.62
2019-02-23T14:51:48.258Z,58.45
2019-02-23T14:54:33.206Z,58.83
2019-02-23T14:57:12.014Z,58.47
2019-02-23T15:00:00.243Z,58.44
2019-02-23T15:02:39.677Z,58.64
2019-02-23T15:05:18.814Z,58.50
2019-02-23T15:08:18.928Z,59.26
2019-02-23T15:11:12.909Z,58.56
2019-02-23T15:14:01.012Z,58.64
2019-02-23T15:17:04.260Z,58.67
2019-02-23T15:19:55.269Z,58.56
2019-02-23T15:22:59.931Z,58.81
2019-02-23T15:25:53.659Z,57.98
2019-02-23T15:28:38.156Z,58.50
2019-02-23T15:31:13.292Z,58.85
2019-02-23T15:33:58.715Z,59.00
2019-02-23T15:36:34.638Z,58.64
2019-02-23T15:39:41.523Z,58.83
2019-02-23T15:42:23.763Z,59.16
2019-02-23T15:45:15.052Z,59.34
2019-02-23T15:48:07.532Z,58.94
2019-02-23T15:50:37.718Z,58.93
2019-02-23T15:53:08.044Z,59.22
2019-02-23T15:55:39.204Z,59.70
2019-02-23T15:58:09.491Z,58.90
2019-02-23T16:00:39.712Z,58.62
2019-02-23T16:03:09.951Z,59.60
2019-02-23T16:05:40.000Z,59.36
2019-02-23T16:08:10.237Z,59.47
2019-02-23T16:10:40.353Z,59.02
2019-02-23T16:13:10.422Z,59.45
2019-02-23T16:15:40.533Z,58.78
2019-02-23T16:18:10.779Z,59.78
2019-02-23T16:20:40.897Z,59.48
2019-02-23T16:23:11.115Z,59.32
2019-02-23T16:25:41.303Z,59.45
2019-02-23T16:28:11.543Z,59.54
2019-02-23T16:30:41.694Z,59.15
2019-02-23T16:33:11.929Z,58.35
2019-02-23T16:35:42.109Z,57.88
2019-02-23T16:38:12.353Z,58.81
2019-02-23T16:40:44.215Z,58.70
2019-02-23T16:43:14.555Z,58.59
2019-02-23T16:45:44.819Z,58.61
2019-02-23T16:48:15.082Z,58.47
2019-02-23T16:50:45.275Z,58.66
2019-02-23T16:53:15.520Z,59.12
2019-02-23T16:55:51.019Z,58.97
2019-02-23T16:58:17.673Z,58.25
2019-02-23T17:00:47.872Z,59.37
2019-02-23T17:03:18.129Z,59.42
2019-02-23T17:05:48.239Z,59.64
2019-02-23T17:08:18.489Z,59.68
2019-02-23T17:10:48.726Z,59.86
2019-02-23T17:13:18.948Z,59.87
2019-02-23T17:15:49.133Z,59.95
2019-02-23T17:18:19.386Z,60.20
2019-02-23T17:20:49.572Z,60.21
2019-02-23T17:23:19.833Z,59.95
2019-02-23T17:25:50.029Z,60.17
2019-02-23T17:28:20.318Z,59.99
2019-02-23T17:30:50.517Z,60.20
2019-02-23T17:33:20.772Z,59.55
2019-02-23T17:35:50.963Z,60.36
2019-02-23T17:38:21.217Z,60.63
2019-02-23T17:40:52.295Z,60.50
2019-02-23T17:43:22.632Z,60.63
2019-02-23T17:45:52.771Z,61.12
2019-02-23T17:48:23.009Z,60.80
2019-02-23T17:50:53.137Z,60.09
2019-02-23T17:53:23.241Z,60.62
2019-02-23T17:55:53.361Z,60.38
2019-02-23T17:58:23.534Z,60.87
2019-02-23T18:00:53.681Z,59.86
2019-02-23T18:03:23.836Z,60.85
2019-02-23T18:05:54.051Z,60.73
2019-02-23T18:08:24.231Z,60.98
2019-02-23T18:10:54.363Z,60.87
2019-02-23T18:13:24.627Z,60.74
2019-02-23T18:15:54.754Z,60.24
2019-02-23T18:18:24.930Z,60.42
2019-02-23T18:20:55.137Z,60.01
2019-02-23T18:23:25.353Z,59.76
2019-02-23T18:25:55.540Z,60.59
2019-02-23T18:28:25.778Z,60.90
2019-02-23T18:30:55.976Z,61.08
2019-02-23T18:33:26.213Z,60.32
2019-02-23T18:35:56.266Z,60.79
2019-02-23T18:38:26.466Z,60.68
2019-02-23T18:40:57.630Z,60.58
2019-02-23T18:43:27.911Z,60.84
2019-02-23T18:45:58.129Z,61.12
2019-02-23T18:48:28.394Z,61.71
2019-02-23T18:50:58.612Z,61.14
2019-02-23T18:53:28.863Z,61.40
2019-02-23T18:55:59.093Z,61.10
2019-02-23T18:58:29.284Z,61.58
2019-02-23T19:00:59.473Z,61.55
2019-02-23T19:03:29.723Z,61.83
2019-02-23T19:05:59.938Z,62.05
2019-02-23T19:08:30.160Z,62.76
2019-02-23T19:11:00.356Z,62.57
2019-02-23T19:13:30.671Z,63.13
2019-02-23T19:16:00.908Z,62.54
2019-02-23T19:18:31.180Z,62.56
2019-02-23T19:21:01.385Z,62.81
2019-02-23T19:23:31.645Z,63.34
2019-02-23T19:26:01.846Z,63.30
2019-02-23T19:28:32.157Z,63.12
2019-02-23T19:31:02.431Z,63.10
2019-02-23T19:33:32.681Z,63.40
2019-02-23T19:36:02.895Z,62.61
2019-02-23T19:38:33.199Z,62.75
2019-02-23T19:41:05.075Z,62.75
2019-02-23T19:43:35.496Z,62.30
2019-02-23T19:46:05.672Z,60.72
2019-02-23T19:48:35.847Z,61.08
2019-02-23T19:51:08.132Z,60.86
2019-02-23T19:53:38.744Z,60.27
2019-02-23T19:56:08.870Z,59.55
2019-02-23T19:58:39.069Z,59.48
2019-02-23T20:01:09.185Z,59.76
2019-02-23T20:03:39.678Z,58.88
2019-02-23T20:06:09.985Z,58.96
2019-02-23T20:08:40.225Z,59.17
2019-02-23T20:11:10.430Z,59.43
2019-02-23T20:13:40.751Z,58.88
2019-02-23T20:16:11.045Z,59.53
2019-02-23T20:18:41.445Z,59.36
2019-02-23T20:21:11.613Z,59.33
2019-02-23T20:23:41.815Z,58.83
2019-02-23T20:26:11.990Z,58.80
2019-02-23T20:28:42.087Z,58.49
2019-02-23T20:31:12.209Z,58.21
2019-02-23T20:33:42.417Z,58.09
2019-02-23T20:36:12.532Z,58.19
2019-02-23T20:38:42.701Z,57.33
2019-02-23T20:41:13.800Z,56.70
2019-02-23T20:43:44.195Z,58.22
2019-02-23T20:46:14.293Z,57.51
2019-02-23T20:48:44.622Z,58.58
2019-02-23T20:51:14.874Z,57.24
2019-02-23T20:53:45.127Z,57.93
2019-02-23T20:56:15.425Z,57.51
2019-02-23T20:58:45.708Z,57.73
2019-02-23T21:01:15.893Z,57.60
2019-02-23T21:03:46.530Z,57.36
2019-02-23T21:06:16.861Z,57.40
2019-02-23T21:08:47.210Z,56.86
2019-02-23T21:11:17.341Z,57.42
2019-02-23T21:13:47.586Z,57.17
2019-02-23T21:16:17.787Z,57.31
2019-02-23T21:18:48.011Z,57.34
2019-02-23T21:21:18.125Z,56.94
2019-02-23T21:23:48.401Z,56.49
2019-02-23T21:26:18.603Z,56.58
2019-02-23T21:28:48.859Z,56.74
2019-02-23T21:31:19.056Z,56.39
2019-02-23T21:33:49.279Z,56.92
2019-02-23T21:36:19.468Z,57.78
2019-02-23T21:38:49.656Z,57.15
2019-02-23T21:41:20.745Z,57.16
2019-02-23T21:43:51.159Z,57.06
2019-02-23T21:46:21.354Z,57.22
2019-02-23T21:48:51.592Z,57.02
2019-02-23T21:51:21.790Z,57.23
2019-02-23T21:53:51.931Z,57.24
2019-02-23T21:56:22.136Z,57.76
2019-02-23T21:58:52.342Z,57.60
2019-02-23T22:01:22.581Z,58.01
2019-02-23T22:03:52.683Z,58.75
2019-02-23T22:06:22.794Z,58.77
2019-02-23T22:08:52.956Z,58.59
2019-02-23T22:11:23.094Z,58.63
2019-02-23T22:13:53.250Z,59.29
2019-02-23T22:16:23.445Z,58.80
2019-02-23T22:18:53.545Z,59.01
2019-02-23T22:21:23.677Z,58.51
2019-02-23T22:23:53.844Z,58.89
2019-02-23T22:26:23.969Z,59.22
2019-02-23T22:28:54.077Z,59.87
2019-02-23T22:31:24.216Z,59.83
2019-02-23T22:33:54.451Z,60.15
2019-02-23T22:36:24.602Z,59.73
2019-02-23T22:38:54.773Z,61.08
2019-02-23T22:41:25.833Z,61.09
2019-02-23T22:43:56.106Z,60.30
2019-02-23T22:46:26.216Z,60.19
2019-02-23T22:48:56.406Z,60.00
2019-02-23T22:51:26.610Z,59.76
2019-02-23T22:53:56.759Z,60.12
2019-02-23T22:56:26.950Z,60.59
2019-02-23T22:58:57.184Z,60.80
2019-02-23T23:01:27.383Z,60.49
2019-02-23T23:03:57.641Z,60.61
2019-02-23T23:06:27.837Z,61.23
2019-02-23T23:08:58.085Z,62.56
2019-02-23T23:11:28.283Z,62.09
2019-02-23T23:13:58.474Z,61.45
2019-02-23T23:16:28.661Z,61.50
2019-02-23T23:18:58.884Z,61.86
2019-02-23T23:24:25.397Z,61.56
2019-02-23T23:26:55.615Z,62.28
2019-02-23T23:29:25.794Z,61.94
2019-02-23T23:31:56.000Z,62.13
2019-02-23T23:34:26.234Z,61.46
2019-02-23T23:36:56.450Z,61.26
2019-02-23T23:39:26.697Z,61.47
2019-02-23T23:41:57.780Z,62.04
2019-02-23T23:44:28.111Z,62.12
2019-02-23T23:46:58.318Z,62.20
2019-02-23T23:49:28.494Z,61.86
2019-02-23T23:51:58.611Z,62.17
2019-02-23T23:54:28.764Z,61.66
2019-02-23T23:56:58.980Z,62.25
2019-02-23T23:59:29.221Z,61.93
